Weather at Manavgat Airport

Public forecast

Using degrees Celsius for public forecast. Weather courtesy of forecast.io.

Closest aviation weather report (METAR) to Manavgat Airport

Closest report is Antalya International Airport, 35.4 nm (65.6 km) WNW.

2022/12/07 23:20 (retrieved 34 minutes ago)

LTAI 072320Z 01005KT 9999 FEW015CB BKN025 12/11 Q1019 NOSIG RMK RWY18C 36003KT RWY36R 01005KT RWY18L 05004KT

Closest aviation forecast (TAF) to Manavgat Airport

Closest forecast is Antalya International Airport, 35.4 nm (65.6 km) WNW.

2022/12/07 18:57 Ammendment (retrieved 5 hours ago)

TAF AMD LTAI 071851Z 0718/0818 36007KT 9999 FEW015CB BKN025 TEMPO 0719/0721 -TSRA BECMG 0800/0803 BKN030 TEMPO 0811/0815 -SHRA FEW020CB BKN030